Time;durP1;ratioP1;P1;durP2;ratioP2;P2;SDS_P1;SDS_P2;PMS_P1;PMS_P2;Temp;Humidity;BMP_temperature;BMP_pressure;BME280_temperature;BME280_humidity;BME280_pressure;Samples;Min_cycle;Max_cycle;Signal;HPM_P1;HPM_P2
2022/10/06 00:00:45;;;;;;;9.07;1.73;;;12.80;99.90;;;;;;5109934;28;20036;-61
2022/10/06 00:03:11;;;;;;;5.35;1.20;;;12.80;99.90;;;;;;5092512;28;20074;-61
2022/10/06 00:05:37;;;;;;;6.93;1.55;;;12.70;99.90;;;;;;5110721;28;20044;-61
2022/10/06 00:08:04;;;;;;;10.07;1.52;;;12.70;99.90;;;;;;5109223;28;20054;-61
2022/10/06 00:10:30;;;;;;;9.32;1.55;;;12.80;99.90;;;;;;5109591;28;20038;-61
2022/10/06 00:12:57;;;;;;;6.25;1.30;;;12.70;99.90;;;;;;5109645;28;20040;-61
2022/10/06 00:15:29;;;;;;;7.50;1.92;;;12.80;99.90;;;;;;5108451;28;20036;-61
2022/10/06 00:17:57;;;;;;;10.32;1.77;;;12.80;99.90;;;;;;5110739;28;20043;-61
2022/10/06 00:20:25;;;;;;;11.90;1.70;;;12.80;99.90;;;;;;5109370;28;20047;-61
2022/10/06 00:22:51;;;;;;;12.77;2.72;;;12.70;99.90;;;;;;5109347;28;20420;-61
2022/10/06 00:25:22;;;;;;;6.70;1.45;;;12.70;99.90;;;;;;5092001;28;20479;-61
2022/10/06 00:27:49;;;;;;;5.65;1.40;;;12.70;99.90;;;;;;5110370;28;20044;-60
2022/10/06 00:30:21;;;;;;;8.50;1.30;;;12.70;99.90;;;;;;5108993;28;20035;-62
2022/10/06 00:32:56;;;;;;;8.07;1.15;;;12.80;99.90;;;;;;5110452;28;20036;-61
2022/10/06 00:35:24;;;;;;;8.15;1.35;;;12.80;99.90;;;;;;5109041;28;20032;-62
2022/10/06 00:37:50;;;;;;;10.30;1.58;;;12.80;99.90;;;;;;5110325;28;20130;-61
2022/10/06 00:40:17;;;;;;;8.07;1.67;;;12.80;99.90;;;;;;5108932;28;20051;-61
2022/10/06 00:42:59;;;;;;;10.45;1.67;;;12.80;99.90;;;;;;5092288;28;20075;-61
2022/10/06 00:45:33;;;;;;;7.55;1.00;;;12.70;99.90;;;;;;5106807;28;20297;-61
2022/10/06 00:48:07;;;;;;;12.13;1.80;;;12.70;99.90;;;;;;5108833;28;20083;-61
2022/10/06 00:50:34;;;;;;;6.63;1.92;;;12.70;99.90;;;;;;5109075;28;20035;-61
2022/10/06 00:53:01;;;;;;;6.32;1.10;;;12.70;99.90;;;;;;5108852;28;20044;-61
2022/10/06 00:55:27;;;;;;;8.95;1.65;;;12.70;99.90;;;;;;5112745;28;20047;-61
2022/10/06 00:57:54;;;;;;;12.23;2.38;;;12.60;99.90;;;;;;5114431;28;20395;-61
2022/10/06 01:00:20;;;;;;;7.10;1.40;;;12.60;99.90;;;;;;5114228;28;20043;-61
2022/10/06 01:03:17;;;;;;;9.85;2.20;;;12.60;99.90;;;;;;5112985;28;20445;-61
2022/10/06 01:05:48;;;;;;;8.85;1.75;;;12.50;99.90;;;;;;5107852;28;20051;-61
2022/10/06 01:08:14;;;;;;;7.88;1.55;;;12.40;99.90;;;;;;5112663;28;20036;-61
2022/10/06 01:10:40;;;;;;;8.10;2.13;;;12.40;99.90;;;;;;5112826;28;20071;-61
2022/10/06 01:13:09;;;;;;;7.32;1.67;;;12.40;99.90;;;;;;5112809;28;20196;-61
2022/10/06 01:15:38;;;;;;;7.18;1.35;;;12.50;99.90;;;;;;5111997;28;20039;-61
2022/10/06 01:18:12;;;;;;;8.48;1.80;;;12.50;99.90;;;;;;5113899;28;20047;-61
2022/10/06 01:20:48;;;;;;;8.55;1.63;;;12.50;99.90;;;;;;5114277;28;20494;-61
2022/10/06 01:23:17;;;;;;;6.53;1.33;;;12.50;99.90;;;;;;5112448;28;20040;-61
2022/10/06 01:25:44;;;;;;;11.20;2.78;;;12.50;99.90;;;;;;5095640;28;20075;-60
2022/10/06 01:28:11;;;;;;;7.93;1.35;;;12.40;99.90;;;;;;5117167;27;20048;-61
2022/10/06 01:30:52;;;;;;;9.13;1.30;;;12.40;99.90;;;;;;5114195;28;20444;-61
2022/10/06 01:33:21;;;;;;;7.03;1.10;;;12.40;99.90;;;;;;5112420;28;20055;-61
2022/10/06 01:35:52;;;;;;;8.55;1.67;;;12.40;99.90;;;;;;5113625;28;20042;-61
2022/10/06 01:38:19;;;;;;;10.43;1.58;;;12.30;99.90;;;;;;5112540;28;20047;-61
2022/10/06 01:40:45;;;;;;;9.15;1.90;;;12.30;99.90;;;;;;5112231;28;20530;-61
2022/10/06 01:43:11;;;;;;;9.68;1.45;;;12.30;99.90;;;;;;5112371;28;20047;-61
2022/10/06 01:45:38;;;;;;;10.85;1.75;;;12.30;99.90;;;;;;5109779;28;20036;-61
2022/10/06 01:48:05;;;;;;;9.80;2.13;;;12.30;99.90;;;;;;5113341;28;20062;-61
2022/10/06 01:50:31;;;;;;;8.10;1.88;;;12.20;99.90;;;;;;5113317;28;20594;-61
2022/10/06 01:52:57;;;;;;;12.02;1.52;;;12.20;99.90;;;;;;5112291;28;20039;-61
2022/10/06 01:55:24;;;;;;;11.60;1.40;;;12.10;99.90;;;;;;5113207;28;20044;-62
2022/10/06 01:57:50;;;;;;;6.13;1.65;;;12.00;99.90;;;;;;5113349;28;20445;-62
2022/10/06 02:00:17;;;;;;;7.10;1.75;;;12.00;99.90;;;;;;5112114;28;20070;-61
2022/10/06 02:02:43;;;;;;;9.65;1.45;;;11.90;99.90;;;;;;5111871;28;20075;-61
2022/10/06 02:05:10;;;;;;;10.40;1.92;;;12.00;99.90;;;;;;5113032;28;20090;-61
2022/10/06 02:07:36;;;;;;;3.45;1.10;;;12.00;99.90;;;;;;5110570;28;20499;-61
2022/10/06 02:10:05;;;;;;;10.52;1.60;;;12.10;99.90;;;;;;5113089;28;20036;-61
2022/10/06 02:12:31;;;;;;;11.35;2.03;;;12.00;99.90;;;;;;5113071;28;20035;-61
2022/10/06 02:14:57;;;;;;;7.85;1.50;;;12.00;99.90;;;;;;5120283;27;20039;-61
2022/10/06 02:17:23;;;;;;;6.78;1.55;;;12.00;99.90;;;;;;5115241;27;20460;-61
2022/10/06 02:19:49;;;;;;;6.97;1.58;;;12.00;99.90;;;;;;5131922;27;20198;-61
2022/10/06 02:22:14;;;;;;;7.68;2.05;;;12.00;99.90;;;;;;5132261;27;20122;-61
2022/10/06 02:24:40;;;;;;;8.63;2.10;;;12.00;99.90;;;;;;5132128;27;20031;-61
2022/10/06 02:27:06;;;;;;;7.60;1.25;;;12.00;99.90;;;;;;5133100;27;20055;-61
2022/10/06 02:29:33;;;;;;;6.72;1.50;;;12.10;99.90;;;;;;5133536;27;20149;-61
2022/10/06 02:31:59;;;;;;;9.38;1.15;;;12.10;99.90;;;;;;5132097;27;20043;-61
2022/10/06 02:34:25;;;;;;;7.35;1.20;;;12.10;99.90;;;;;;5132899;27;20501;-61
2022/10/06 02:36:51;;;;;;;9.35;1.35;;;12.10;99.90;;;;;;5114827;27;20039;-61
2022/10/06 02:39:16;;;;;;;6.97;1.40;;;12.10;99.90;;;;;;5131658;27;20043;-61
2022/10/06 02:41:42;;;;;;;8.80;1.92;;;12.10;99.90;;;;;;5131783;27;20071;-61
2022/10/06 02:44:08;;;;;;;8.35;2.03;;;12.10;99.90;;;;;;5129139;27;20050;-61
2022/10/06 02:46:34;;;;;;;8.25;1.85;;;12.10;99.90;;;;;;5131483;27;20103;-61
2022/10/06 02:49:00;;;;;;;7.65;2.20;;;12.10;99.90;;;;;;5131410;27;20047;-61
2022/10/06 02:51:26;;;;;;;8.80;1.88;;;12.10;99.90;;;;;;5132962;27;20034;-61
2022/10/06 02:53:53;;;;;;;6.88;1.30;;;12.00;99.90;;;;;;5132767;27;20416;-62
2022/10/06 02:56:24;;;;;;;11.48;1.30;;;12.10;99.90;;;;;;5131232;27;20110;-61
2022/10/06 02:58:51;;;;;;;7.32;1.70;;;11.90;99.90;;;;;;5132662;27;20393;-61
2022/10/06 03:01:19;;;;;;;8.35;1.65;;;11.90;99.90;;;;;;5131466;27;20128;-61
2022/10/06 03:03:45;;;;;;;10.77;1.83;;;11.80;99.90;;;;;;5131212;27;20043;-61
2022/10/06 03:06:27;;;;;;;8.88;1.55;;;11.70;99.90;;;;;;5131309;27;20043;-61
2022/10/06 03:08:55;;;;;;;11.23;1.98;;;11.70;99.90;;;;;;5132568;27;20031;-61
2022/10/06 03:11:23;;;;;;;13.13;1.80;;;11.70;99.90;;;;;;5132474;27;20230;-61
2022/10/06 03:13:50;;;;;;;6.70;1.25;;;11.60;99.90;;;;;;5129829;27;20096;-61
2022/10/06 03:16:18;;;;;;;6.72;1.33;;;11.50;99.90;;;;;;5132362;27;20041;-61
2022/10/06 03:18:48;;;;;;;9.25;2.03;;;11.50;99.90;;;;;;5130602;27;20039;-61
2022/10/06 03:21:18;;;;;;;;;;;11.50;99.90;;;;;;5131549;27;20398;-61
2022/10/06 03:23:46;;;;;;;5.43;1.50;;;11.60;99.90;;;;;;5132245;27;19921;-62
2022/10/06 03:26:14;;;;;;;7.18;1.52;;;11.60;99.90;;;;;;5130441;27;20115;-61
2022/10/06 03:28:40;;;;;;;7.15;1.65;;;11.70;99.90;;;;;;5130619;27;20444;-61
2022/10/06 03:31:07;;;;;;;9.52;1.80;;;11.70;99.90;;;;;;5113511;27;20071;-61
2022/10/06 03:33:36;;;;;;;8.73;1.52;;;11.70;99.90;;;;;;5130633;27;20399;-62
2022/10/06 03:36:09;;;;;;;8.98;1.90;;;11.60;99.90;;;;;;5130434;27;20039;-62
2022/10/06 03:38:35;;;;;;;10.88;1.83;;;11.50;99.90;;;;;;5131779;27;20042;-61
2022/10/06 03:41:10;;;;;;;9.18;1.88;;;11.50;99.90;;;;;;5130362;27;20407;-61
2022/10/06 03:43:37;;;;;;;9.93;1.67;;;11.40;99.90;;;;;;5129535;27;20045;-61
2022/10/06 03:46:04;;;;;;;5.72;1.42;;;11.30;99.90;;;;;;5130325;27;20043;-61
2022/10/06 03:48:33;;;;;;;8.68;1.60;;;11.20;99.90;;;;;;5131937;27;20078;-61
2022/10/06 03:51:04;;;;;;;11.65;1.77;;;11.10;99.90;;;;;;5130554;27;20183;-61
2022/10/06 03:53:30;;;;;;;14.25;1.77;;;11.10;99.90;;;;;;5130413;27;20390;-61
2022/10/06 03:56:07;;;;;;;7.63;1.52;;;11.00;99.90;;;;;;5131512;27;20501;-61
2022/10/06 03:58:36;;;;;;;8.23;1.95;;;11.00;99.90;;;;;;5131602;27;20091;-62
2022/10/06 04:01:16;;;;;;;7.75;1.73;;;11.00;99.90;;;;;;5131376;27;20494;-62
2022/10/06 04:03:43;;;;;;;7.72;1.60;;;11.00;99.90;;;;;;5130109;27;20099;-62
2022/10/06 04:06:12;;;;;;;15.13;2.63;;;10.90;99.90;;;;;;5112706;27;20126;-61
2022/10/06 04:08:40;;;;;;;10.32;2.55;;;10.90;99.90;;;;;;5129879;27;20502;-61
2022/10/06 04:11:12;;;;;;;10.35;1.60;;;10.80;99.90;;;;;;5131431;27;20046;-62
2022/10/06 04:13:38;;;;;;;13.10;1.90;;;10.80;99.90;;;;;;5127624;27;20228;-62
2022/10/06 04:16:22;;;;;;;11.63;1.80;;;10.70;99.90;;;;;;5129775;27;20045;-61
2022/10/06 04:18:50;;;;;;;10.20;1.92;;;10.70;99.90;;;;;;5130033;27;20038;-61
2022/10/06 04:21:17;;;;;;;10.88;1.70;;;10.60;99.90;;;;;;5131263;27;20031;-61
2022/10/06 04:23:43;;;;;;;9.38;1.77;;;10.60;99.90;;;;;;5131200;27;20080;-61
2022/10/06 04:26:17;;;;;;;6.43;1.48;;;10.60;99.90;;;;;;5130891;27;20051;-62
2022/10/06 04:28:44;;;;;;;9.55;1.85;;;10.60;99.90;;;;;;5130563;27;20490;-61
2022/10/06 04:31:21;;;;;;;11.35;2.63;;;10.50;99.90;;;;;;5129485;27;20393;-62
2022/10/06 04:33:51;;;;;;;13.77;2.08;;;10.50;99.90;;;;;;5129591;27;20502;-62
2022/10/06 04:36:22;;;;;;;12.15;1.52;;;10.50;99.90;;;;;;5129773;27;20390;-61
2022/10/06 04:38:55;;;;;;;11.45;1.42;;;10.50;99.90;;;;;;5130841;27;20118;-61
2022/10/06 04:41:22;;;;;;;13.32;2.15;;;10.50;99.90;;;;;;5130822;27;20046;-61
2022/10/06 04:43:49;;;;;;;8.23;1.65;;;10.50;99.90;;;;;;5127312;27;20435;-61
2022/10/06 04:46:17;;;;;;;9.00;1.65;;;10.40;99.90;;;;;;5129354;28;20043;-61
2022/10/06 04:48:43;;;;;;;7.70;1.58;;;10.50;99.90;;;;;;5129378;28;20506;-61
2022/10/06 04:51:12;;;;;;;12.88;1.70;;;10.40;99.90;;;;;;5130754;28;20043;-62
2022/10/06 04:53:38;;;;;;;8.27;1.90;;;10.40;99.90;;;;;;5129381;28;20042;-61
2022/10/06 04:56:11;;;;;;;13.02;2.05;;;10.40;99.90;;;;;;5129482;28;20035;-61
2022/10/06 04:58:39;;;;;;;17.45;2.60;;;10.40;99.90;;;;;;5129423;28;20053;-61
2022/10/06 05:01:23;;;;;;;10.32;1.60;;;10.40;99.90;;;;;;5130764;27;20043;-62
2022/10/06 05:03:53;;;;;;;9.63;1.60;;;10.50;99.90;;;;;;5130561;27;20126;-61
2022/10/06 05:06:21;;;;;;;9.98;1.67;;;10.50;99.90;;;;;;5130498;27;20039;-62
2022/10/06 05:08:49;;;;;;;8.38;1.50;;;10.50;99.90;;;;;;5130848;27;20053;-61
2022/10/06 05:11:15;;;;;;;10.02;1.95;;;10.50;99.90;;;;;;5113536;28;20092;-62
2022/10/06 05:13:42;;;;;;;7.28;1.63;;;10.50;99.90;;;;;;5129656;28;20038;-61
2022/10/06 05:16:11;;;;;;;7.32;2.25;;;10.50;99.90;;;;;;5130748;28;20035;-61
2022/10/06 05:18:37;;;;;;;10.40;1.30;;;10.50;99.90;;;;;;5130617;28;20498;-61
2022/10/06 05:21:12;;;;;;;10.75;2.08;;;10.50;99.90;;;;;;5131732;27;20830;-61
2022/10/06 05:23:39;;;;;;;9.75;2.20;;;10.50;99.90;;;;;;5130607;28;20649;-62
2022/10/06 05:26:06;;;;;;;14.77;1.88;;;10.50;99.90;;;;;;5130309;28;20062;-62
2022/10/06 05:28:33;;;;;;;9.27;1.50;;;10.50;99.90;;;;;;5096999;28;20101;-62
2022/10/06 05:31:03;;;;;;;9.13;1.90;;;10.40;99.90;;;;;;5111298;28;20047;-62
2022/10/06 05:33:32;;;;;;;6.25;1.95;;;10.40;99.90;;;;;;5109902;28;20040;-61
2022/10/06 05:36:05;;;;;;;10.63;3.35;;;10.40;99.90;;;;;;5109850;28;20064;-61
2022/10/06 05:38:31;;;;;;;11.20;1.55;;;10.40;99.90;;;;;;5110153;28;20047;-61
2022/10/06 05:41:07;;;;;;;12.32;2.30;;;10.40;99.90;;;;;;5112707;28;20667;-61
2022/10/06 05:43:34;;;;;;;9.18;2.05;;;10.40;99.90;;;;;;5111461;28;20048;-61
2022/10/06 05:46:03;;;;;;;11.52;2.00;;;10.40;99.90;;;;;;5113673;28;20046;-61
2022/10/06 05:48:29;;;;;;;8.43;1.90;;;10.30;99.90;;;;;;5113494;28;20039;-61
2022/10/06 05:51:04;;;;;;;7.78;1.83;;;10.30;99.90;;;;;;5113521;28;20040;-61
2022/10/06 05:53:32;;;;;;;11.35;1.65;;;10.40;99.90;;;;;;5113668;28;20110;-61
2022/10/06 05:56:04;;;;;;;10.57;2.20;;;10.30;99.90;;;;;;5113704;28;20546;-61
2022/10/06 05:58:32;;;;;;;13.75;2.33;;;10.30;99.90;;;;;;5113700;28;20074;-61
2022/10/06 06:01:14;;;;;;;11.15;2.53;;;10.30;99.90;;;;;;5096249;28;20040;-61
2022/10/06 06:03:41;;;;;;;11.43;2.08;;;10.30;99.90;;;;;;5112686;28;20067;-61
2022/10/06 06:06:41;;;;;;;9.18;2.00;;;10.40;99.90;;;;;;5112173;28;20054;-61
2022/10/06 06:09:16;;;;;;;8.60;2.42;;;10.40;99.90;;;;;;5111610;28;20499;-61
2022/10/06 06:11:47;;;;;;;12.82;2.10;;;10.50;99.90;;;;;;5111796;28;20530;-61
2022/10/06 06:15:59;;;;;;;10.27;1.85;;;10.50;99.90;;;;;;5128665;27;20135;-61
2022/10/06 06:17:04;;;;;;;11.13;3.13;;;10.60;99.90;;;;;;5132296;27;20039;-61
2022/10/06 06:19:30;;;;;;;14.63;1.95;;;10.60;99.90;;;;;;5133279;27;20050;-61
2022/10/06 06:21:56;;;;;;;9.68;2.00;;;10.60;99.90;;;;;;5133559;27;20337;-62
2022/10/06 06:24:22;;;;;;;11.40;2.10;;;10.70;99.90;;;;;;5131926;27;20035;-63
2022/10/06 06:26:47;;;;;;;16.33;2.05;;;10.70;99.90;;;;;;5131781;27;20059;-63
2022/10/06 06:29:13;;;;;;;13.05;2.67;;;10.70;99.90;;;;;;5132126;27;20043;-63
2022/10/06 06:31:42;;;;;;;10.77;1.98;;;10.80;99.90;;;;;;5132045;27;20047;-63
2022/10/06 06:34:10;;;;;;;12.43;1.92;;;10.80;99.90;;;;;;5133037;27;20114;-63
2022/10/06 06:36:40;;;;;;;13.27;2.08;;;10.90;99.90;;;;;;5133319;27;20047;-63
2022/10/06 06:39:11;;;;;;;12.80;3.22;;;10.90;99.90;;;;;;5130127;27;20042;-63
2022/10/06 06:41:45;;;;;;;11.55;1.65;;;11.00;99.90;;;;;;5116581;27;20032;-63
2022/10/06 06:44:12;;;;;;;12.23;2.53;;;11.00;99.90;;;;;;5099792;27;20376;-63
2022/10/06 06:46:41;;;;;;;12.65;2.05;;;11.10;99.90;;;;;;5133195;27;20035;-63
2022/10/06 06:49:08;;;;;;;11.38;3.08;;;11.10;99.90;;;;;;5133355;27;20035;-63
2022/10/06 06:51:36;;;;;;;13.57;2.08;;;11.20;99.90;;;;;;5134325;27;20115;-63
2022/10/06 06:54:03;;;;;;;11.70;1.90;;;11.30;99.90;;;;;;5133967;27;20106;-63
2022/10/06 06:56:36;;;;;;;9.93;1.90;;;11.30;99.90;;;;;;5133315;27;20043;-63
2022/10/06 06:59:07;;;;;;;11.13;2.20;;;11.40;99.90;;;;;;5133355;27;20035;-63
2022/10/06 07:01:33;;;;;;;11.13;2.10;;;11.40;99.90;;;;;;5132969;27;20517;-63
2022/10/06 07:04:01;;;;;;;7.85;1.85;;;11.50;99.90;;;;;;5126830;27;20036;-63
2022/10/06 07:06:29;;;;;;;14.77;2.42;;;11.50;99.90;;;;;;5113780;27;20055;-63
2022/10/06 07:08:57;;;;;;;15.90;2.30;;;11.60;99.90;;;;;;5112578;28;20035;-63
2022/10/06 07:11:29;;;;;;;13.02;2.28;;;11.70;99.90;;;;;;5113351;28;20446;-63
2022/10/06 07:14:02;;;;;;;9.77;1.63;;;11.80;99.90;;;;;;5110164;28;20054;-64
2022/10/06 07:25:07;;;;;;;10.65;1.88;;;12.10;99.90;;;;;;5133000;27;20042;-63
2022/10/06 07:27:41;;;;;;;7.05;1.60;;;12.20;99.90;;;;;;5133260;27;20537;-63
2022/10/06 07:30:10;;;;;;;10.25;2.05;;;12.30;99.90;;;;;;5133813;27;20035;-63
2022/10/06 07:32:36;;;;;;;8.98;1.88;;;12.40;99.90;;;;;;5133628;27;20644;-63
2022/10/06 07:35:05;;;;;;;8.02;2.05;;;12.50;99.90;;;;;;5132989;27;20106;-63
2022/10/06 07:37:33;;;;;;;10.98;2.08;;;12.60;99.90;;;;;;5133256;27;20395;-63
2022/10/06 07:40:00;;;;;;;9.48;1.83;;;12.70;99.90;;;;;;5134788;27;20038;-63
2022/10/06 07:42:26;;;;;;;10.48;1.98;;;12.80;99.90;;;;;;5116201;27;20047;-62
2022/10/06 07:47:38;;;;;;;13.43;2.63;;;13.00;99.90;;;;;;5132275;27;20051;-63
2022/10/06 07:50:07;;;;;;;11.98;2.15;;;13.10;99.90;;;;;;5130537;27;20087;-63
2022/10/06 07:52:35;;;;;;;9.00;1.50;;;13.30;99.90;;;;;;5111420;28;20067;-63
2022/10/06 07:55:03;;;;;;;12.95;1.80;;;13.40;99.90;;;;;;5130394;27;20039;-62
2022/10/06 07:57:34;;;;;;;10.13;2.03;;;13.50;99.90;;;;;;5126984;27;20036;-62
2022/10/06 08:00:04;;;;;;;19.23;4.03;;;13.70;99.90;;;;;;5131620;27;20054;-63
2022/10/06 08:02:30;;;;;;;8.82;2.08;;;14.00;99.90;;;;;;5131941;27;20062;-63
2022/10/06 08:04:55;;;;;;;11.13;1.90;;;14.50;99.90;;;;;;5132077;27;20130;-62
2022/10/06 08:07:21;;;;;;;10.75;1.63;;;15.10;99.90;;;;;;5130575;27;20114;-63
2022/10/06 08:09:47;;;;;;;7.63;1.83;;;15.60;99.90;;;;;;5130829;27;20027;-63
2022/10/06 08:12:31;;;;;;;18.33;2.78;;;16.10;99.90;;;;;;5132788;27;20070;-63
2022/10/06 08:15:00;;;;;;;8.40;1.48;;;16.20;99.90;;;;;;5131887;27;20035;-63
2022/10/06 08:17:29;;;;;;;15.25;1.70;;;16.30;99.90;;;;;;5133856;27;20042;-63
2022/10/06 08:19:55;;;;;;;8.05;1.92;;;16.60;99.90;;;;;;5114887;27;20110;-63
2022/10/06 08:22:26;;;;;;;9.57;1.67;;;16.80;99.90;;;;;;5127172;27;20035;-63
2022/10/06 08:24:53;;;;;;;8.75;1.70;;;17.20;99.90;;;;;;5120976;27;20070;-62
2022/10/06 08:27:27;;;;;;;9.35;2.20;;;17.50;99.90;;;;;;5117821;27;20739;-62
2022/10/06 08:29:55;;;;;;;9.88;1.60;;;17.80;99.90;;;;;;5112763;27;20081;-63
2022/10/06 08:32:22;;;;;;;10.40;1.85;;;18.20;99.90;;;;;;5132262;27;20043;-62
2022/10/06 08:34:49;;;;;;;10.38;1.83;;;18.60;99.90;;;;;;5132639;27;20058;-63
2022/10/06 08:37:22;;;;;;;5.70;1.40;;;18.70;99.90;;;;;;5133629;27;20539;-63
2022/10/06 08:39:53;;;;;;;7.25;1.38;;;18.90;99.90;;;;;;5131819;27;20054;-64
2022/10/06 08:42:37;;;;;;;6.50;1.23;;;19.30;99.90;;;;;;5133590;27;20085;-63
2022/10/06 08:45:36;;;;;;;10.60;1.88;;;19.50;99.90;;;;;;5128118;28;20050;-64
2022/10/06 08:48:18;;;;;;;8.77;1.90;;;19.80;99.90;;;;;;5120932;28;20049;-63
2022/10/06 08:50:59;;;;;;;8.10;2.00;;;20.10;99.90;;;;;;5128345;28;20023;-63
2022/10/06 08:53:59;;;;;;;4.60;1.50;;;20.10;99.90;;;;;;5130035;28;20039;-63
2022/10/06 08:56:32;;;;;;;10.77;1.98;;;20.00;99.90;;;;;;5096528;27;20448;-64
2022/10/06 08:59:03;;;;;;;8.13;1.98;;;20.00;99.90;;;;;;5133455;27;20031;-64
2022/10/06 09:01:42;;;;;;;7.75;1.77;;;20.00;99.90;;;;;;5098423;28;20474;-62
2022/10/06 09:04:22;;;;;;;10.07;1.50;;;20.30;99.90;;;;;;5133425;28;20417;-64
2022/10/06 09:07:13;;;;;;;13.95;2.15;;;20.40;99.90;;;;;;5133170;27;20044;-64
2022/10/06 09:10:16;;;;;;;6.88;1.77;;;20.60;99.90;;;;;;5114090;28;20035;-64
2022/10/06 09:12:59;;;;;;;9.27;1.67;;;20.70;99.90;;;;;;5130163;28;20490;-64
2022/10/06 09:15:47;;;;;;;10.45;1.48;;;20.90;99.90;;;;;;5129090;27;20079;-64
2022/10/06 09:18:26;;;;;;;7.65;1.65;;;21.20;99.90;;;;;;5135016;27;20038;-63
2022/10/06 09:21:00;;;;;;;8.20;1.75;;;21.50;99.90;;;;;;5135849;27;20410;-64
2022/10/06 09:23:48;;;;;;;7.45;1.92;;;21.70;99.90;;;;;;5134981;27;20085;-63
2022/10/06 09:26:42;;;;;;;7.45;2.10;;;21.50;99.10;;;;;;5122755;27;20529;-64
2022/10/06 09:29:10;;;;;;;6.60;1.65;;;21.00;99.30;;;;;;5134919;27;20043;-63
2022/10/06 09:31:41;;;;;;;10.32;1.67;;;20.80;99.10;;;;;;5127827;27;20061;-63
2022/10/06 09:34:33;;;;;;;8.25;1.63;;;20.80;98.80;;;;;;5132328;27;20031;-64
2022/10/06 09:37:12;;;;;;;11.45;1.50;;;20.70;99.20;;;;;;5136002;27;20043;-63
2022/10/06 09:39:52;;;;;;;8.77;1.85;;;21.10;99.90;;;;;;5132361;27;20127;-62
2022/10/06 09:42:34;;;;;;;13.18;1.83;;;21.40;99.30;;;;;;5134769;27;20507;-63
2022/10/06 09:45:27;;;;;;;7.25;1.52;;;21.30;97.10;;;;;;5130915;27;20039;-63
2022/10/06 09:48:10;;;;;;;6.32;1.35;;;20.80;97.00;;;;;;5134671;27;20035;-64
2022/10/06 09:50:39;;;;;;;6.88;1.50;;;20.80;97.50;;;;;;5136180;27;20487;-64
2022/10/06 09:53:15;;;;;;;8.27;1.90;;;21.20;98.60;;;;;;5129599;27;20486;-63
2022/10/06 09:55:50;;;;;;;6.50;1.80;;;21.30;98.20;;;;;;5134696;27;20065;-63
2022/10/06 09:58:16;;;;;;;6.97;1.65;;;21.00;97.40;;;;;;5117694;27;20045;-63
2022/10/06 10:01:13;;;;;;;9.93;1.55;;;20.60;98.10;;;;;;5134456;27;20390;-63
2022/10/06 10:03:53;;;;;;;10.93;2.08;;;20.10;98.70;;;;;;5134277;27;20165;-63
2022/10/06 10:06:35;;;;;;;8.32;1.60;;;19.80;98.70;;;;;;5117519;27;20043;-63
2022/10/06 10:09:24;;;;;;;7.93;2.05;;;19.70;99.60;;;;;;5118844;27;20035;-62
2022/10/06 10:12:28;;;;;;;10.02;2.25;;;19.00;98.40;;;;;;5135690;27;20394;-63
2022/10/06 10:15:52;;;;;;;7.35;2.13;;;18.70;99.60;;;;;;5133063;27;20035;-62
2022/10/06 10:18:27;;;;;;;9.05;1.17;;;19.30;99.90;;;;;;5135413;27;20039;-62
2022/10/06 10:21:04;;;;;;;9.13;1.77;;;19.70;99.90;;;;;;5133128;27;20427;-63
2022/10/06 10:23:34;;;;;;;6.10;1.23;;;19.20;98.10;;;;;;5135200;27;20468;-62
2022/10/06 10:26:06;;;;;;;7.10;1.73;;;19.00;97.90;;;;;;5133818;27;20077;-62
2022/10/06 10:28:49;;;;;;;7.22;1.20;;;18.40;98.70;;;;;;5132891;27;20043;-62
2022/10/06 10:31:40;;;;;;;4.72;1.10;;;18.50;99.30;;;;;;5132574;27;20400;-62
2022/10/06 10:34:33;;;;;;;4.60;1.23;;;19.00;99.30;;;;;;5105233;28;20048;-63
2022/10/06 10:37:08;;;;;;;6.43;1.88;;;19.50;98.70;;;;;;5127309;27;20047;-62
2022/10/06 10:39:49;;;;;;;7.30;1.27;;;19.80;97.50;;;;;;5115621;27;20039;-62
2022/10/06 10:42:48;;;;;;;9.98;1.50;;;20.00;96.00;;;;;;5133420;27;20145;-62
2022/10/06 10:45:31;;;;;;;10.77;1.55;;;19.90;96.20;;;;;;5111988;27;20580;-62
2022/10/06 10:48:00;;;;;;;9.75;1.15;;;20.20;96.30;;;;;;5113790;27;20040;-62
2022/10/06 10:50:33;;;;;;;6.97;1.53;;;20.60;96.20;;;;;;5134131;27;20050;-61
2022/10/06 10:53:18;;;;;;;5.50;1.80;;;20.70;95.90;;;;;;5134287;27;20497;-63
2022/10/06 10:55:47;;;;;;;5.93;1.42;;;20.70;97.00;;;;;;5135336;27;20490;-62
2022/10/06 10:58:18;;;;;;;5.55;1.45;;;21.00;96.00;;;;;;5134271;27;20394;-62
2022/10/06 11:00:50;;;;;;;5.55;1.23;;;21.20;95.50;;;;;;5135092;27;20031;-63
2022/10/06 11:03:17;;;;;;;8.65;1.33;;;21.40;96.80;;;;;;5116654;27;20049;-63
2022/10/06 11:06:07;;;;;;;5.32;1.45;;;21.60;95.50;;;;;;5111600;28;20043;-63
2022/10/06 11:08:42;;;;;;;7.38;1.50;;;21.30;94.20;;;;;;5147295;27;20051;-62
2022/10/06 11:11:19;;;;;;;7.20;1.63;;;20.70;94.20;;;;;;5147821;27;20043;-62
2022/10/06 11:13:53;;;;;;;8.88;1.40;;;20.20;95.50;;;;;;5110927;28;20035;-63
2022/10/06 11:16:47;;;;;;;6.50;1.52;;;20.30;95.70;;;;;;5114726;28;20032;-61
2022/10/06 11:19:23;;;;;;;7.78;1.52;;;20.70;94.60;;;;;;5117017;27;20118;-62
2022/10/06 11:22:21;;;;;;;7.55;1.17;;;20.80;94.10;;;;;;5133712;27;20208;-62
2022/10/06 11:25:02;;;;;;;4.82;1.23;;;20.60;94.00;;;;;;5118951;27;20065;-61
2022/10/06 11:27:46;;;;;;;2.72;0.93;;;20.00;93.50;;;;;;5133262;27;20508;-62
2022/10/06 11:30:25;;;;;;;4.63;1.50;;;19.40;94.80;;;;;;5134760;27;20084;-61
2022/10/06 11:33:08;;;;;;;7.03;1.50;;;19.20;94.40;;;;;;5133642;27;20054;-61
2022/10/06 11:35:38;;;;;;;7.10;1.17;;;18.80;93.70;;;;;;5133052;27;20039;-61
2022/10/06 11:38:41;;;;;;;5.63;0.77;;;18.50;96.10;;;;;;5133390;27;20059;-62
2022/10/06 11:41:52;;;;;;;5.82;1.50;;;18.50;97.70;;;;;;5118258;27;20132;-62
2022/10/06 11:44:33;;;;;;;4.75;1.42;;;18.60;97.70;;;;;;5106621;28;20388;-62
2022/10/06 11:47:32;;;;;;;8.50;0.90;;;18.60;96.50;;;;;;5112489;28;20043;-61
2022/10/06 11:49:58;;;;;;;5.40;1.10;;;18.40;96.90;;;;;;5053630;28;20051;-61
2022/10/06 11:52:24;;;;;;;7.07;1.35;;;18.40;96.40;;;;;;5124541;27;20412;-62
2022/10/06 11:55:11;;;;;;;7.82;1.85;;;18.50;97.00;;;;;;5132280;27;20062;-61
2022/10/06 11:57:59;;;;;;;6.75;1.40;;;18.70;96.80;;;;;;5117695;27;20040;-62
2022/10/06 12:00:25;;;;;;;8.55;1.90;;;19.20;95.50;;;;;;5113701;27;20096;-61
2022/10/06 12:02:51;;;;;;;3.95;1.15;;;19.80;95.40;;;;;;5115800;27;20047;-61
2022/10/06 12:05:18;;;;;;;5.93;1.13;;;19.80;94.10;;;;;;5121164;27;20039;-62
2022/10/06 12:07:56;;;;;;;9.05;1.88;;;19.20;94.30;;;;;;5113331;28;20051;-62
2022/10/06 12:10:28;;;;;;;8.07;1.40;;;18.70;95.40;;;;;;5112415;28;20123;-61
2022/10/06 12:13:18;;;;;;;6.07;1.40;;;18.40;95.40;;;;;;5111999;28;20636;-61
2022/10/06 12:15:57;;;;;;;5.07;1.05;;;18.10;96.30;;;;;;5110961;28;20061;-61
2022/10/06 12:18:31;;;;;;;5.80;1.00;;;18.00;97.00;;;;;;5112265;28;20039;-61
2022/10/06 12:21:06;;;;;;;7.80;1.50;;;18.00;97.90;;;;;;5113502;28;20039;-62
2022/10/06 12:24:01;;;;;;;7.30;1.23;;;18.10;98.00;;;;;;5111971;28;20051;-61
2022/10/06 12:26:50;;;;;;;8.98;1.20;;;18.20;97.80;;;;;;5112992;28;20392;-61
2022/10/06 12:29:41;;;;;;;6.17;1.63;;;18.20;97.40;;;;;;5114882;27;20043;-61
2022/10/06 12:32:23;;;;;;;6.47;1.63;;;18.00;96.80;;;;;;5130140;27;20463;-61
2022/10/06 12:35:26;;;;;;;7.55;1.20;;;17.90;97.20;;;;;;5114759;28;20055;-61
2022/10/06 12:37:54;;;;;;;4.78;1.23;;;17.90;97.40;;;;;;5132559;27;20039;-60
2022/10/06 12:40:47;;;;;;;6.50;1.67;;;17.70;96.80;;;;;;5123668;27;20059;-61
2022/10/06 12:43:13;;;;;;;7.47;2.08;;;17.70;96.40;;;;;;5111640;28;20051;-61
2022/10/06 12:45:43;;;;;;;8.57;1.42;;;17.50;96.30;;;;;;5092329;28;20043;-62
2022/10/06 12:48:36;;;;;;;8.15;1.67;;;17.40;96.80;;;;;;5111495;28;20047;-62
2022/10/06 12:51:11;;;;;;;9.10;1.73;;;17.40;97.50;;;;;;5112011;28;20564;-63
2022/10/06 12:53:55;;;;;;;4.63;1.10;;;17.40;98.10;;;;;;5132085;28;20041;-63
2022/10/06 12:56:31;;;;;;;7.55;1.50;;;17.40;97.80;;;;;;5132065;28;20039;-61
2022/10/06 12:58:57;;;;;;;8.57;1.92;;;17.30;97.10;;;;;;5131892;28;20039;-63
2022/10/06 13:01:25;;;;;;;9.38;1.88;;;17.20;96.80;;;;;;5132230;28;20047;-61
2022/10/06 13:03:52;;;;;;;10.45;1.98;;;17.10;97.10;;;;;;5132202;28;20345;-63
2022/10/06 13:06:23;;;;;;;6.15;1.60;;;17.10;97.00;;;;;;5131807;28;20122;-62
2022/10/06 13:09:12;;;;;;;7.70;1.58;;;17.10;97.30;;;;;;5131464;28;20386;-61
2022/10/06 13:11:38;;;;;;;8.73;1.58;;;17.00;97.00;;;;;;5132980;27;20053;-62
2022/10/06 13:14:12;;;;;;;6.35;1.20;;;16.90;97.00;;;;;;5112453;28;20039;-62
2022/10/06 13:16:43;;;;;;;12.25;1.70;;;16.80;98.50;;;;;;5131840;28;20071;-63
2022/10/06 13:19:39;;;;;;;;;;;16.90;98.70;;;;;;5132648;28;20101;-62
2022/10/06 13:22:05;;;;;;;8.23;1.90;;;16.90;98.60;;;;;;5110813;28;19921;-62
2022/10/06 13:24:30;;;;;;;9.88;1.75;;;16.80;99.10;;;;;;5131666;28;20126;-63